OJAQ/AQJ METAR and TAF weather

Enter ICAO airport designator
Station Type Date Time Source
OJAQ METAR 2022/01/25 03:00 UTC NOAA

OJAQ 250300Z 35010KT CAVOK 07/01 Q1020 NOSIG


Station Type Date Time Source
OJAQ Decoded METAR 2022/01/25 03:00 UTC NOAA

Aqaba Airport, Jordan (OJAQ) 29-38N 035-01E 51M
Jan 24, 2022 - 10:00 PM EST / 2022.01.25 0300 UTC
Wind: from the N (350 degrees) at 12 MPH (10 KT):0
Visibility: greater than 7 mile(s):0
Temperature: 44 F (7 C)
Dew Point: 33 F (1 C)
Relative Humidity: 65%
Pressure (altimeter): 30.12 in. Hg (1020 hPa)
ob: OJAQ 250300Z 35010KT CAVOK 07/01 Q1020 NOSIG
cycle: 3

Station Type Date Time Source
OJAQ TAF 2022/01/24 18:15 UTC NOAA

TAF TAF OJAQ 241650Z 2418/2524 VRB02KT CAVOK
BECMG 2506/2508 01014KT

Example: see airport list